Time;durP1;ratioP1;P1;durP2;ratioP2;P2;SDS_P1;SDS_P2;PMS_P1;PMS_P2;Temp;Humidity;BMP_temperature;BMP_pressure;BME280_temperature;BME280_humidity;BME280_pressure;Samples;Min_cycle;Max_cycle;Signal;HPM_P1;HPM_P2
2021/01/14 00:00:33;;;;;;;;;;;;;;;1.66;100.00;100101.19;5116828;28;20271;-75
2021/01/14 00:03:00;;;;;;;;;;;;;;;1.71;100.00;100095.44;5116713;27;19935;-76
2021/01/14 00:05:28;;;;;;;;;;;;;;;1.65;100.00;100096.81;5117027;28;19959;-75
2021/01/14 00:07:54;;;;;;;;;;;;;;;1.75;100.00;100090.88;5115501;28;20033;-75
2021/01/14 00:10:21;;;;;;;;;;;;;;;1.74;100.00;100082.97;5116534;28;19947;-75
2021/01/14 00:12:48;;;;;;;;;;;;;;;1.68;100.00;100082.34;5116363;28;19946;-75
2021/01/14 00:15:15;;;;;;;;;;;;;;;1.60;100.00;100069.50;5116414;28;20495;-75
2021/01/14 00:17:42;;;;;;;;;;;;;;;1.67;100.00;100075.25;5116413;28;19928;-75
2021/01/14 00:20:13;;;;;;;;;;;;;;;1.65;100.00;100074.75;5098290;28;19968;-75
2021/01/14 00:22:39;;;;;;;;;;;;;;;1.64;100.00;100075.91;5116464;28;19924;-75
2021/01/14 00:25:07;;;;;;;;;;;;;;;1.55;100.00;100072.44;5116157;28;19924;-75
2021/01/14 00:27:33;;;;;;;;;;;;;;;1.56;100.00;100068.53;5115187;28;19928;-75
2021/01/14 00:30:00;;;;;;;;;;;;;;;1.60;100.00;100061.22;5116328;28;19928;-75
2021/01/14 00:32:26;;;;;;;;;;;;;;;1.51;100.00;100066.03;5116098;28;19924;-75
2021/01/14 00:34:53;;;;;;;;;;;;;;;1.59;100.00;100065.09;5116260;28;19925;-75
2021/01/14 00:40:05;;;;;;;;;;;;;;;1.61;100.00;100057.31;5097637;28;20278;-75
2021/01/14 00:42:32;;;;;;;;;;;;;;;1.63;100.00;100052.28;5114818;28;20397;-75
2021/01/14 00:45:00;;;;;;;;;;;;;;;1.78;100.00;100048.88;5114802;28;20351;-75
2021/01/14 00:47:33;;;;;;;;;;;;;;;1.83;100.00;100040.34;5115833;28;20012;-75
2021/01/14 00:49:59;;;;;;;;;;;;;;;1.74;100.00;100039.66;5115913;28;20407;-75
2021/01/14 00:52:26;;;;;;;;;;;;;;;1.75;100.00;100034.97;5115686;28;19970;-76
2021/01/14 00:54:52;;;;;;;;;;;;;;;1.68;100.00;100030.00;5114407;28;19924;-75
2021/01/14 00:57:18;;;;;;;;;;;;;;;1.59;100.00;100026.53;5114778;28;19976;-75
2021/01/14 00:59:45;;;;;;;;;;;;;;;1.57;100.00;100015.06;5114287;28;19923;-75
2021/01/14 01:02:12;;;;;;;;;;;;;;;1.59;100.00;100010.00;5114311;28;20351;-75
2021/01/14 01:04:40;;;;;;;;;;;;;;;1.57;100.00;100001.31;5115577;28;20397;-75
2021/01/14 01:07:06;;;;;;;;;;;;;;;1.57;100.00;99994.97;5114009;28;19977;-75
2021/01/14 01:09:33;;;;;;;;;;;;;;;1.75;100.00;99988.94;5114232;28;19924;-75
2021/01/14 01:11:59;;;;;;;;;;;;;;;1.75;100.00;99986.19;5115030;28;19969;-75
2021/01/14 01:14:26;;;;;;;;;;;;;;;1.69;100.00;99990.31;5115349;28;20015;-75
2021/01/14 01:16:53;;;;;;;;;;;;;;;1.80;100.00;99990.66;5080286;28;19923;-75
2021/01/14 01:19:20;;;;;;;;;;;;;;;1.84;100.00;99984.13;5115314;28;19959;-75
2021/01/14 01:21:46;;;;;;;;;;;;;;;1.95;100.00;99991.91;5113706;28;20413;-75
2021/01/14 01:24:13;;;;;;;;;;;;;;;2.03;100.00;99983.50;5115194;28;20012;-75
2021/01/14 01:26:39;;;;;;;;;;;;;;;2.02;100.00;99981.09;5113814;28;19924;-75
2021/01/14 01:29:06;;;;;;;;;;;;;;;2.00;100.00;99978.69;5115115;28;19930;-75
2021/01/14 01:31:37;;;;;;;;;;;;;;;1.95;100.00;99983.66;5115037;28;19930;-75
2021/01/14 01:34:03;;;;;;;;;;;;;;;2.03;100.00;99978.00;5113801;28;19930;-75
2021/01/14 01:36:30;;;;;;;;;;;;;;;2.01;100.00;99979.50;5113326;28;19924;-75
2021/01/14 01:38:56;;;;;;;;;;;;;;;2.05;100.00;99974.91;5113662;28;19963;-76
2021/01/14 01:41:23;;;;;;;;;;;;;;;1.97;100.00;99962.06;5079832;28;20409;-75
2021/01/14 01:43:49;;;;;;;;;;;;;;;2.00;100.00;99967.66;5114880;28;19924;-75
2021/01/14 01:46:22;;;;;;;;;;;;;;;2.08;100.00;99969.50;5114693;28;20294;-75
2021/01/14 01:48:49;;;;;;;;;;;;;;;2.13;100.00;99952.75;5114737;28;20290;-75
2021/01/14 01:51:15;;;;;;;;;;;;;;;2.19;100.00;99958.81;5114395;28;19924;-75
2021/01/14 01:53:42;;;;;;;;;;;;;;;2.16;100.00;99960.31;5114494;27;19924;-75
2021/01/14 01:56:09;;;;;;;;;;;;;;;2.16;100.00;99956.75;5114429;28;19923;-75
2021/01/14 01:58:39;;;;;;;;;;;;;;;2.15;100.00;99952.41;5114551;28;20283;-75
2021/01/14 02:01:06;;;;;;;;;;;;;;;2.06;100.00;99955.25;5113416;28;19930;-75
2021/01/14 02:03:33;;;;;;;;;;;;;;;2.08;100.00;99950.22;5114426;28;19924;-75
2021/01/14 02:05:59;;;;;;;;;;;;;;;2.09;100.00;99948.28;5114090;28;20018;-75
2021/01/14 02:08:39;;;;;;;;;;;;;;;2.08;100.00;99943.88;5114225;28;19924;-75
2021/01/14 02:11:09;;;;;;;;;;;;;;;2.08;100.00;99941.13;5113247;28;19930;-75
2021/01/14 02:13:41;;;;;;;;;;;;;;;2.02;100.00;99937.00;5114206;28;20434;-75
2021/01/14 02:16:08;;;;;;;;;;;;;;;1.92;100.00;99943.00;5113049;28;19923;-75
2021/01/14 02:18:35;;;;;;;;;;;;;;;1.92;100.00;99935.53;5114096;28;19927;-75
2021/01/14 02:21:04;;;;;;;;;;;;;;;1.88;100.00;99938.16;5114005;28;20024;-75
2021/01/14 02:23:40;;;;;;;;;;;;;;;1.73;100.00;99940.81;5113103;28;20370;-75
2021/01/14 02:26:10;;;;;;;;;;;;;;;1.65;100.00;99937.00;5114119;28;20381;-75
2021/01/14 02:28:38;;;;;;;;;;;;;;;1.78;100.00;99927.63;5113017;28;20319;-75
2021/01/14 02:31:04;;;;;;;;;;;;;;;1.70;100.00;99925.78;5114116;28;19935;-75
2021/01/14 02:33:31;;;;;;;;;;;;;;;1.59;100.00;99927.38;5112799;28;19931;-75
2021/01/14 02:35:57;;;;;;;;;;;;;;;1.60;100.00;99922.66;5113846;28;20378;-75
2021/01/14 02:38:24;;;;;;;;;;;;;;;1.61;100.00;99922.31;5112775;28;19923;-75
2021/01/14 02:40:50;;;;;;;;;;;;;;;1.62;100.00;99921.16;5096009;28;19924;-75
2021/01/14 02:43:17;;;;;;;;;;;;;;;1.63;100.00;99920.03;5112806;28;19959;-75
2021/01/14 02:45:44;;;;;;;;;;;;;;;1.62;100.00;99915.66;5112725;28;19924;-75
2021/01/14 02:48:12;;;;;;;;;;;;;;;1.59;100.00;99913.59;5113949;28;19924;-75
2021/01/14 02:50:39;;;;;;;;;;;;;;;1.65;100.00;99919.69;5113681;28;19962;-75
2021/01/14 02:53:07;;;;;;;;;;;;;;;1.70;100.00;99923.00;5095810;28;20367;-75
2021/01/14 02:55:33;;;;;;;;;;;;;;;1.67;100.00;99915.44;5113903;28;19931;-75
2021/01/14 02:58:00;;;;;;;;;;;;;;;1.69;100.00;99907.66;5112655;28;19927;-75
2021/01/14 03:00:26;;;;;;;;;;;;;;;1.68;100.00;99906.00;5114104;28;20014;-75
2021/01/14 03:02:53;;;;;;;;;;;;;;;1.76;100.00;99902.34;5113786;28;19923;-75
2021/01/14 03:05:19;;;;;;;;;;;;;;;1.92;100.00;99898.91;5113630;28;19924;-75
2021/01/14 03:07:46;;;;;;;;;;;;;;;2.00;100.00;99895.22;5112581;28;19970;-75
2021/01/14 03:10:12;;;;;;;;;;;;;;;2.01;100.00;99891.28;5095709;28;19923;-76
2021/01/14 03:12:39;;;;;;;;;;;;;;;1.85;100.00;99885.69;5113266;28;20371;-74
2021/01/14 03:15:05;;;;;;;;;;;;;;;2.03;100.00;99880.75;5112547;28;20390;-75
2021/01/14 03:17:36;;;;;;;;;;;;;;;1.98;100.00;99876.28;5112483;28;20283;-75
2021/01/14 03:20:06;;;;;;;;;;;;;;;1.95;100.00;99881.66;5115787;28;19924;-76
2021/01/14 03:22:37;;;;;;;;;;;;;;;1.76;100.00;99874.78;5117525;28;19923;-75
2021/01/14 03:25:04;;;;;;;;;;;;;;;1.81;100.00;99880.09;5117411;28;19930;-75
2021/01/14 03:27:35;;;;;;;;;;;;;;;1.72;100.00;99873.91;5117286;28;19973;-76
2021/01/14 03:30:02;;;;;;;;;;;;;;;1.67;100.00;99878.81;5117359;28;20010;-76
2021/01/14 03:32:28;;;;;;;;;;;;;;;1.67;100.00;99876.06;5117004;28;19935;-76
2021/01/14 03:34:55;;;;;;;;;;;;;;;1.65;100.00;99873.66;5115835;28;19959;-76
2021/01/14 03:37:21;;;;;;;;;;;;;;;1.75;100.00;99875.94;5115873;28;19933;-76
2021/01/14 03:39:48;;;;;;;;;;;;;;;1.65;100.00;99872.88;5117079;28;20016;-76
2021/01/14 03:42:18;;;;;;;;;;;;;;;1.62;100.00;99877.09;5115698;28;19973;-76
2021/01/14 03:44:47;;;;;;;;;;;;;;;1.73;100.00;99875.47;5117039;28;19930;-76
2021/01/14 03:47:13;;;;;;;;;;;;;;;1.85;100.00;99869.97;5098374;28;19924;-76
2021/01/14 03:49:40;;;;;;;;;;;;;;;1.74;100.00;99870.78;5116847;28;19923;-76
2021/01/14 03:52:11;;;;;;;;;;;;;;;1.84;100.00;99871.13;5116789;28;19931;-76
2021/01/14 03:54:38;;;;;;;;;;;;;;;2.00;100.00;99864.91;5116777;28;19930;-76
2021/01/14 03:57:05;;;;;;;;;;;;;;;1.81;100.00;99858.03;5116740;28;20363;-76
2021/01/14 03:59:31;;;;;;;;;;;;;;;1.71;100.00;99861.25;5116756;28;19924;-76
2021/01/14 04:01:59;;;;;;;;;;;;;;;1.70;100.00;99859.66;5115006;28;19928;-76
2021/01/14 04:04:26;;;;;;;;;;;;;;;1.77;100.00;99854.34;5098419;28;19931;-76
2021/01/14 04:06:53;;;;;;;;;;;;;;;1.78;100.00;99860.66;5116557;28;20019;-76
2021/01/14 04:09:19;;;;;;;;;;;;;;;1.66;100.00;99856.00;5116816;28;19924;-76
2021/01/14 04:11:47;;;;;;;;;;;;;;;1.82;100.00;99856.06;5116439;28;19923;-76
2021/01/14 04:14:14;;;;;;;;;;;;;;;1.77;100.00;99848.06;5116379;28;19930;-76
2021/01/14 04:16:40;;;;;;;;;;;;;;;1.76;100.00;99851.94;5116088;28;20022;-76
2021/01/14 04:19:07;;;;;;;;;;;;;;;1.75;100.00;99839.31;5115207;28;20010;-75
2021/01/14 04:21:34;;;;;;;;;;;;;;;1.66;100.00;99836.69;5116294;28;19924;-76
2021/01/14 04:24:00;;;;;;;;;;;;;;;1.62;100.00;99830.25;5116218;28;19928;-76
2021/01/14 04:26:28;;;;;;;;;;;;;;;1.65;100.00;99826.81;5114871;28;20381;-76
2021/01/14 04:28:54;;;;;;;;;;;;;;;1.63;100.00;99826.38;5116279;28;19927;-76
2021/01/14 04:31:21;;;;;;;;;;;;;;;1.62;100.00;99824.75;5115833;28;19946;-76
2021/01/14 04:33:57;;;;;;;;;;;;;;;1.59;100.00;99822.69;5116089;27;19993;-76
2021/01/14 04:36:24;;;;;;;;;;;;;;;1.65;100.00;99815.78;5114822;28;19930;-76
2021/01/14 04:38:50;;;;;;;;;;;;;;;1.63;100.00;99820.88;5097802;28;19977;-76
2021/01/14 04:41:17;;;;;;;;;;;;;;;1.59;100.00;99808.91;5114628;28;19924;-76
2021/01/14 04:43:44;;;;;;;;;;;;;;;1.57;100.00;99802.97;5115841;28;19924;-76
2021/01/14 04:46:11;;;;;;;;;;;;;;;1.64;100.00;99799.59;5097367;28;20374;-76
2021/01/14 04:48:39;;;;;;;;;;;;;;;1.56;100.00;99804.09;5114604;28;19923;-76
2021/01/14 04:51:09;;;;;;;;;;;;;;;1.57;100.00;99799.41;5115672;28;19923;-76
2021/01/14 04:53:36;;;;;;;;;;;;;;;1.55;100.00;99791.50;5115563;28;19923;-76
2021/01/14 04:56:04;;;;;;;;;;;;;;;1.65;100.00;99793.75;5115648;28;19969;-76
2021/01/14 04:58:32;;;;;;;;;;;;;;;1.64;100.00;99794.91;5115638;28;20437;-76
2021/01/14 05:00:59;;;;;;;;;;;;;;;1.60;100.00;99783.00;5115361;28;20022;-76
2021/01/14 05:03:26;;;;;;;;;;;;;;;1.60;100.00;99785.75;5114221;28;20006;-76
2021/01/14 05:05:54;;;;;;;;;;;;;;;1.57;100.00;99772.66;5114173;28;20385;-76
2021/01/14 05:08:28;;;;;;;;;;;;;;;1.58;100.00;99771.50;5080501;28;20359;-76
2021/01/14 05:10:55;;;;;;;;;;;;;;;1.57;100.00;99764.41;5115499;28;19934;-76
2021/01/14 05:13:22;;;;;;;;;;;;;;;1.57;100.00;99767.16;5115173;28;20274;-76
2021/01/14 05:15:49;;;;;;;;;;;;;;;1.56;100.00;99751.75;5096626;28;19930;-76
2021/01/14 05:18:15;;;;;;;;;;;;;;;1.58;100.00;99751.41;5115267;28;19924;-76
2021/01/14 05:20:42;;;;;;;;;;;;;;;1.57;100.00;99745.13;5115250;27;19969;-76
2021/01/14 05:23:08;;;;;;;;;;;;;;;1.60;100.00;99732.59;5115111;28;19969;-76
2021/01/14 05:25:35;;;;;;;;;;;;;;;1.57;100.00;99736.84;5113249;28;19931;-76
2021/01/14 05:28:09;;;;;;;;;;;;;;;1.58;100.00;99734.88;5115061;28;19928;-76
2021/01/14 05:30:36;;;;;;;;;;;;;;;1.56;100.00;99717.94;5113945;28;19927;-76
2021/01/14 05:33:03;;;;;;;;;;;;;;;1.58;100.00;99719.19;5114955;28;19924;-76
2021/01/14 05:35:30;;;;;;;;;;;;;;;1.60;100.00;99716.88;5114677;27;20361;-76
2021/01/14 05:38:03;;;;;;;;;;;;;;;1.58;100.00;99719.19;5114483;28;20290;-76
2021/01/14 05:40:30;;;;;;;;;;;;;;;1.63;100.00;99709.88;5113505;28;20369;-76
2021/01/14 05:43:04;;;;;;;;;;;;;;;1.58;100.00;99694.38;5113727;28;19923;-76
2021/01/14 05:45:31;;;;;;;;;;;;;;;1.54;100.00;99693.50;5114629;28;20408;-76
2021/01/14 05:48:07;;;;;;;;;;;;;;;1.54;100.00;99689.91;5114245;28;20279;-75
2021/01/14 05:50:52;;;;;;;;;;;;;;;1.56;100.00;99687.63;5114333;28;20295;-75
2021/01/14 05:53:19;;;;;;;;;;;;;;;1.53;100.00;99678.09;5114010;28;20360;-76
2021/01/14 05:55:50;;;;;;;;;;;;;;;1.51;100.00;99674.91;5113057;28;19924;-76
2021/01/14 05:58:18;;;;;;;;;;;;;;;1.51;100.00;99669.41;5112702;28;20019;-75
2021/01/14 06:00:45;;;;;;;;;;;;;;;1.55;100.00;99659.28;5114125;28;20374;-75
2021/01/14 06:03:25;;;;;;;;;;;;;;;1.56;100.00;99665.59;5112956;28;19931;-75
2021/01/14 06:05:52;;;;;;;;;;;;;;;1.54;100.00;99657.69;5115056;28;20325;-75
2021/01/14 06:08:22;;;;;;;;;;;;;;;1.54;100.00;99646.66;5115315;28;19928;-76
2021/01/14 06:10:49;;;;;;;;;;;;;;;1.49;100.00;99651.59;5113709;28;19931;-75
2021/01/14 06:13:16;;;;;;;;;;;;;;;1.51;100.00;99636.34;5114397;28;19981;-76
2021/01/14 06:15:43;;;;;;;;;;;;;;;1.53;100.00;99631.28;5113460;28;19969;-76
2021/01/14 06:18:11;;;;;;;;;;;;;;;1.54;100.00;99634.84;5114753;28;20035;-76
2021/01/14 06:20:49;;;;;;;;;;;;;;;1.57;100.00;99628.63;5114947;28;19931;-75
2021/01/14 06:23:18;;;;;;;;;;;;;;;1.55;100.00;99612.44;5114647;28;20358;-76
2021/01/14 06:25:48;;;;;;;;;;;;;;;1.53;100.00;99614.75;5114395;28;20442;-76
2021/01/14 06:28:17;;;;;;;;;;;;;;;1.56;100.00;99616.00;5114299;28;19923;-76
2021/01/14 06:30:55;;;;;;;;;;;;;;;1.55;100.00;99615.22;5113183;28;19945;-76
2021/01/14 06:33:23;;;;;;;;;;;;;;;1.57;100.00;99610.16;5113278;28;19931;-76
2021/01/14 06:35:56;;;;;;;;;;;;;;;1.56;100.00;99600.28;5114273;28;20362;-76
2021/01/14 06:38:25;;;;;;;;;;;;;;;1.62;100.00;99603.59;5113138;28;20385;-76
2021/01/14 06:40:56;;;;;;;;;;;;;;;1.61;100.00;99599.22;5112884;28;19976;-76
2021/01/14 06:43:27;;;;;;;;;;;;;;;1.63;100.00;99599.69;5113108;28;19931;-76
2021/01/14 06:45:56;;;;;;;;;;;;;;;1.62;100.00;99596.09;5114336;28;20405;-76
2021/01/14 06:48:29;;;;;;;;;;;;;;;1.62;100.00;99582.34;5112950;28;20363;-76
2021/01/14 06:50:59;;;;;;;;;;;;;;;1.67;100.00;99590.34;5114261;28;19924;-76
2021/01/14 06:53:27;;;;;;;;;;;;;;;1.67;100.00;99584.03;5114110;28;20427;-75
2021/01/14 06:55:56;;;;;;;;;;;;;;;1.64;100.00;99574.53;5117584;28;19938;-77
2021/01/14 06:58:23;;;;;;;;;;;;;;;1.65;100.00;99578.88;5117611;28;19923;-75
2021/01/14 07:00:50;;;;;;;;;;;;;;;1.64;100.00;99566.28;5116870;28;19923;-75
2021/01/14 07:03:18;;;;;;;;;;;;;;;1.65;100.00;99570.63;5117978;28;20373;-74
2021/01/14 07:05:44;;;;;;;;;;;;;;;1.65;100.00;99564.31;5117526;28;19927;-75
2021/01/14 07:08:30;;;;;;;;;;;;;;;1.66;100.00;99561.22;5117742;28;19924;-74
2021/01/14 07:10:56;;;;;;;;;;;;;;;1.67;100.00;99556.50;5117545;28;19924;-74
2021/01/14 07:13:25;;;;;;;;;;;;;;;1.68;100.00;99560.88;5116209;28;20363;-75
2021/01/14 07:15:52;;;;;;;;;;;;;;;1.69;100.00;99562.47;5117513;28;19924;-74
2021/01/14 07:18:26;;;;;;;;;;;;;;;1.70;100.00;99555.78;5116383;28;19969;-75
2021/01/14 07:20:53;;;;;;;;;;;;;;;1.73;100.00;99555.88;5117488;28;20336;-75
2021/01/14 07:23:19;;;;;;;;;;;;;;;1.74;100.00;99551.97;5117379;28;20435;-74
2021/01/14 07:25:46;;;;;;;;;;;;;;;1.74;100.00;99556.69;5115939;28;20244;-75
2021/01/14 07:28:13;;;;;;;;;;;;;;;1.72;100.00;99554.28;5116216;28;20012;-75
2021/01/14 07:30:39;;;;;;;;;;;;;;;1.71;100.00;99549.91;5117243;28;19978;-75
2021/01/14 07:33:06;;;;;;;;;;;;;;;1.76;100.00;99543.34;5115910;28;19923;-75
2021/01/14 07:35:42;;;;;;;;;;;;;;;1.73;100.00;99547.63;5115837;28;19973;-75
2021/01/14 07:38:10;;;;;;;;;;;;;;;1.71;100.00;99541.66;5098036;28;20020;-75
2021/01/14 07:40:38;;;;;;;;;;;;;;;1.71;100.00;99544.41;5116342;28;19923;-75
2021/01/14 07:43:06;;;;;;;;;;;;;;;1.73;100.00;99544.06;5116807;28;19935;-74
2021/01/14 07:45:37;;;;;;;;;;;;;;;1.70;100.00;99540.06;5116783;28;19923;-75
2021/01/14 07:48:17;;;;;;;;;;;;;;;1.69;100.00;99535.72;5117101;28;19968;-75
2021/01/14 07:50:58;;;;;;;;;;;;;;;1.69;100.00;99532.97;5117092;28;19923;-75
2021/01/14 07:53:26;;;;;;;;;;;;;;;1.71;100.00;99530.63;5116486;28;20374;-75
2021/01/14 07:55:52;;;;;;;;;;;;;;;1.68;100.00;99525.84;5116639;28;19923;-74
2021/01/14 07:58:21;;;;;;;;;;;;;;;1.72;100.00;99534.19;5115577;28;19924;-74
2021/01/14 08:00:57;;;;;;;;;;;;;;;1.66;100.00;99530.91;5115439;28;19931;-75
2021/01/14 08:03:28;;;;;;;;;;;;;;;1.66;100.00;99541.94;5115369;28;20247;-75
2021/01/14 08:05:57;;;;;;;;;;;;;;;1.63;100.00;99534.38;5116128;28;19995;-75
2021/01/14 08:08:30;;;;;;;;;;;;;;;1.61;100.00;99541.38;5097894;28;19924;-74
2021/01/14 08:11:16;;;;;;;;;;;;;;;1.61;100.00;99538.63;5116577;28;19931;-74
2021/01/14 08:14:02;;;;;;;;;;;;;;;1.59;100.00;99536.22;5116277;28;20015;-74
2021/01/14 08:16:36;;;;;;;;;;;;;;;1.54;100.00;99536.50;5116259;28;20026;-74
2021/01/14 08:19:11;;;;;;;;;;;;;;;1.51;100.00;99526.19;5115052;28;19924;-74
2021/01/14 08:21:38;;;;;;;;;;;;;;;1.49;100.00;99533.19;5116287;28;19924;-74
2021/01/14 08:24:11;;;;;;;;;;;;;;;1.46;100.00;99533.88;5116071;28;19959;-75
2021/01/14 08:26:50;;;;;;;;;;;;;;;1.42;100.00;99533.00;5116190;28;20415;-74
2021/01/14 08:29:32;;;;;;;;;;;;;;;1.36;100.00;99528.91;5116081;28;20363;-74
2021/01/14 08:31:59;;;;;;;;;;;;;;;1.32;100.00;99530.72;5116174;28;19928;-75
2021/01/14 08:34:48;;;;;;;;;;;;;;;1.31;100.00;99527.19;5116119;28;19935;-75
2021/01/14 08:37:26;;;;;;;;;;;;;;;1.29;100.00;99523.97;5115588;28;19927;-75
2021/01/14 08:39:53;;;;;;;;;;;;;;;1.22;100.00;99523.00;5115984;27;19931;-75
2021/01/14 08:42:29;;;;;;;;;;;;;;;1.19;100.00;99524.50;5115946;28;19955;-75
2021/01/14 08:44:58;;;;;;;;;;;;;;;1.10;100.00;99515.59;5115911;28;19932;-75
2021/01/14 08:47:44;;;;;;;;;;;;;;;1.01;100.00;99528.69;5115775;28;20340;-75
2021/01/14 08:50:15;;;;;;;;;;;;;;;0.87;100.00;99520.03;5113316;28;19923;-76
2021/01/14 08:52:44;;;;;;;;;;;;;;;0.84;100.00;99517.97;5114558;28;19930;-74
2021/01/14 08:55:13;;;;;;;;;;;;;;;0.80;100.00;99508.81;5115603;28;19930;-74
2021/01/14 08:57:52;;;;;;;;;;;;;;;0.79;100.00;99514.69;5115423;28;19928;-74
2021/01/14 09:00:22;;;;;;;;;;;;;;;0.70;100.00;99514.78;5115525;28;19923;-74
2021/01/14 09:02:48;;;;;;;;;;;;;;;0.69;100.00;99515.13;5114224;28;20263;-74
2021/01/14 09:05:15;;;;;;;;;;;;;;;0.70;100.00;99519.47;5115116;28;19934;-75
2021/01/14 09:07:49;;;;;;;;;;;;;;;0.69;100.00;99526.94;5115133;28;19947;-75
2021/01/14 09:10:15;;;;;;;;;;;;;;;0.76;100.00;99532.66;5115465;28;19927;-75
2021/01/14 09:12:42;;;;;;;;;;;;;;;0.73;100.00;99538.03;5113764;28;20019;-75
2021/01/14 09:15:09;;;;;;;;;;;;;;;0.71;100.00;99540.34;5114916;28;19945;-76
2021/01/14 09:17:36;;;;;;;;;;;;;;;0.68;100.00;99541.06;5114468;28;19974;-76
2021/01/14 09:20:03;;;;;;;;;;;;;;;0.66;100.00;99544.16;5114808;28;19924;-77
2021/01/14 09:22:29;;;;;;;;;;;;;;;0.68;100.00;99550.09;5114971;28;19924;-76
2021/01/14 09:24:56;;;;;;;;;;;;;;;0.79;100.00;99553.97;5114977;28;19971;-76
2021/01/14 09:27:28;;;;;;;;;;;;;;;0.73;100.00;99549.84;5114925;28;19993;-76
2021/01/14 09:29:57;;;;;;;;;;;;;;;0.69;100.00;99554.47;5114677;28;20313;-76
2021/01/14 09:32:24;;;;;;;;;;;;;;;0.69;100.00;99559.97;5096572;28;20298;-77
2021/01/14 09:34:51;;;;;;;;;;;;;;;0.67;100.00;99556.75;5114401;28;20019;-76
2021/01/14 09:37:18;;;;;;;;;;;;;;;0.69;100.00;99559.97;5114808;28;19924;-77
2021/01/14 09:39:45;;;;;;;;;;;;;;;0.64;100.00;99562.13;5114659;28;20429;-76
2021/01/14 09:42:17;;;;;;;;;;;;;;;0.63;100.00;99561.34;5114716;28;19924;-76
2021/01/14 09:44:45;;;;;;;;;;;;;;;0.67;100.00;99561.44;5113387;28;20362;-77
2021/01/14 09:47:12;;;;;;;;;;;;;;;0.62;100.00;99564.44;5113939;28;20370;-77
2021/01/14 09:49:41;;;;;;;;;;;;;;;0.60;100.00;99572.22;5114304;28;19924;-76
2021/01/14 09:52:07;;;;;;;;;;;;;;;0.62;100.00;99576.22;5109525;28;19976;-75
2021/01/14 09:54:36;;;;;;;;;;;;;;;0.60;100.00;99577.72;5101105;28;19928;-76
2021/01/14 09:57:03;;;;;;;;;;;;;;;0.58;100.00;99575.31;5057427;28;19924;-75
2021/01/14 09:59:34;;;;;;;;;;;;;;;0.56;100.00;99591.34;5108340;28;19931;-75
2021/01/14 10:02:03;;;;;;;;;;;;;;;0.59;100.00;99592.63;5109618;28;19927;-76
2021/01/14 10:04:33;;;;;;;;;;;;;;;0.55;100.00;99587.00;5108757;28;20278;-76
2021/01/14 10:07:01;;;;;;;;;;;;;;;0.57;100.00;99598.47;5110284;28;19924;-76
2021/01/14 10:09:53;;;;;;;;;;;;;;;0.61;100.00;99607.63;5109408;28;20294;-76
2021/01/14 10:12:19;;;;;;;;;;;;;;;0.61;100.00;99607.63;5109453;28;19923;-76
2021/01/14 10:14:46;;;;;;;;;;;;;;;0.64;100.00;99617.13;5108144;28;20061;-76
2021/01/14 10:17:13;;;;;;;;;;;;;;;0.64;100.00;99623.44;5108413;28;19961;-74
2021/01/14 10:19:43;;;;;;;;;;;;;;;0.59;100.00;99623.66;5108766;28;19924;-74
2021/01/14 10:22:09;;;;;;;;;;;;;;;0.64;100.00;99630.88;5109791;28;20487;-77
2021/01/14 10:24:36;;;;;;;;;;;;;;;0.67;100.00;99631.00;5109644;28;19978;-77
2021/01/14 10:27:16;;;;;;;;;;;;;;;0.71;100.00;99640.16;5110584;28;19937;-74
2021/01/14 10:29:44;;;;;;;;;;;;;;;0.75;100.00;99648.53;5114425;28;19924;-75
2021/01/14 10:32:15;;;;;;;;;;;;;;;0.77;100.00;99652.56;5114015;28;20022;-74
2021/01/14 10:34:43;;;;;;;;;;;;;;;0.79;100.00;99647.50;5113656;27;19928;-74
2021/01/14 10:37:20;;;;;;;;;;;;;;;0.75;100.00;99656.78;5113127;28;19947;-74
2021/01/14 10:39:47;;;;;;;;;;;;;;;0.78;100.00;99661.59;5112892;28;19924;-73
2021/01/14 10:42:34;;;;;;;;;;;;;;;0.81;100.00;99664.47;5095208;28;20061;-73
2021/01/14 10:45:11;;;;;;;;;;;;;;;0.73;100.00;99668.13;5112740;28;19923;-74
2021/01/14 10:47:41;;;;;;;;;;;;;;;0.76;100.00;99663.91;5112778;28;20275;-73
2021/01/14 10:50:17;;;;;;;;;;;;;;;0.75;100.00;99668.59;5112417;28;20006;-75
2021/01/14 10:52:56;;;;;;;;;;;;;;;0.76;100.00;99672.94;5112744;28;19930;-75
2021/01/14 10:55:22;;;;;;;;;;;;;;;0.80;100.00;99679.38;5112281;28;19935;-73
2021/01/14 10:57:59;;;;;;;;;;;;;;;0.76;100.00;99685.91;5113845;28;19951;-75
2021/01/14 11:00:46;;;;;;;;;;;;;;;0.82;100.00;99685.31;5112474;28;19955;-76
2021/01/14 11:03:16;;;;;;;;;;;;;;;0.84;100.00;99693.22;5111931;28;19923;-74
2021/01/14 11:05:46;;;;;;;;;;;;;;;0.84;100.00;99695.97;5095361;28;20259;-77
2021/01/14 11:08:14;;;;;;;;;;;;;;;0.79;100.00;99708.03;5114223;28;19930;-77
2021/01/14 11:10:41;;;;;;;;;;;;;;;0.82;100.00;99701.84;5113740;28;20376;-76
2021/01/14 11:13:09;;;;;;;;;;;;;;;0.84;100.00;99710.56;5112721;28;19991;-77
2021/01/14 11:15:36;;;;;;;;;;;;;;;0.96;100.00;99718.81;5112264;28;19931;-77
2021/01/14 11:18:04;;;;;;;;;;;;;;;0.93;100.00;99719.50;5113400;28;19928;-77
2021/01/14 11:20:31;;;;;;;;;;;;;;;0.85;100.00;99716.88;5111939;28;19946;-75
2021/01/14 11:22:58;;;;;;;;;;;;;;;0.88;100.00;99722.47;5113628;28;19924;-74
2021/01/14 11:25:24;;;;;;;;;;;;;;;0.92;100.00;99728.91;5112003;28;20415;-74
2021/01/14 11:27:52;;;;;;;;;;;;;;;0.83;100.00;99725.47;5113090;28;19924;-74
2021/01/14 11:30:20;;;;;;;;;;;;;;;0.86;100.00;99735.78;5112649;28;19977;-73
2021/01/14 11:32:46;;;;;;;;;;;;;;;0.82;100.00;99734.84;5112900;28;19927;-74
2021/01/14 11:35:13;;;;;;;;;;;;;;;0.97;100.00;99741.63;5094608;28;19981;-75
2021/01/14 11:37:41;;;;;;;;;;;;;;;0.96;100.00;99735.31;5113775;28;19924;-75
2021/01/14 11:40:08;;;;;;;;;;;;;;;0.91;100.00;99743.78;5110998;28;19928;-74
2021/01/14 11:42:34;;;;;;;;;;;;;;;0.89;100.00;99754.34;5094563;28;20361;-76
2021/01/14 11:45:01;;;;;;;;;;;;;;;0.91;100.00;99754.78;5128849;27;19981;-75
2021/01/14 11:47:27;;;;;;;;;;;;;;;0.91;100.00;99754.78;5112454;28;19924;-75
2021/01/14 11:49:54;;;;;;;;;;;;;;;0.96;100.00;99762.03;5077932;28;20055;-75
2021/01/14 11:52:21;;;;;;;;;;;;;;;0.90;100.00;99766.97;5113193;28;19988;-75
2021/01/14 11:54:47;;;;;;;;;;;;;;;0.85;100.00;99771.91;5110892;28;20377;-75
2021/01/14 11:57:14;;;;;;;;;;;;;;;0.79;100.00;99771.28;5112826;28;19924;-75
2021/01/14 11:59:41;;;;;;;;;;;;;;;0.78;100.00;99772.44;5111250;28;20597;-73
2021/01/14 12:02:08;;;;;;;;;;;;;;;0.75;100.00;99770.38;5112260;28;19935;-73
2021/01/14 12:04:34;;;;;;;;;;;;;;;0.79;100.00;99773.25;5112831;28;19959;-73
2021/01/14 12:07:00;;;;;;;;;;;;;;;0.86;100.00;99779.00;5109990;28;19977;-73
2021/01/14 12:09:27;;;;;;;;;;;;;;;0.79;100.00;99785.03;5111171;28;19928;-73
2021/01/14 12:11:54;;;;;;;;;;;;;;;0.81;100.00;99788.28;5111493;28;19923;-73
2021/01/14 12:14:21;;;;;;;;;;;;;;;0.73;100.00;99782.84;5111870;28;19924;-73
2021/01/14 12:16:48;;;;;;;;;;;;;;;0.81;100.00;99795.72;5112302;28;19924;-74
2021/01/14 12:19:14;;;;;;;;;;;;;;;0.84;100.00;99792.28;5112900;28;20340;-73
2021/01/14 12:21:41;;;;;;;;;;;;;;;0.92;100.00;99788.63;5110785;28;19946;-72
2021/01/14 12:24:08;;;;;;;;;;;;;;;0.87;100.00;99792.41;5112379;28;20293;-72
2021/01/14 12:26:34;;;;;;;;;;;;;;;0.80;100.00;99794.94;5112342;28;20536;-76
2021/01/14 12:29:03;;;;;;;;;;;;;;;0.87;100.00;99799.84;5110338;28;19931;-75
2021/01/14 12:31:33;;;;;;;;;;;;;;;0.81;100.00;99793.78;5112016;28;20286;-76
2021/01/14 12:34:00;;;;;;;;;;;;;;;0.79;100.00;99796.06;5112528;28;19924;-75
2021/01/14 12:36:30;;;;;;;;;;;;;;;0.78;100.00;99804.66;5111633;28;20488;-75
2021/01/14 12:38:56;;;;;;;;;;;;;;;0.76;100.00;99801.47;5110829;28;20567;-76
2021/01/14 12:41:29;;;;;;;;;;;;;;;0.73;100.00;99800.16;5112660;28;19924;-75
2021/01/14 12:43:56;;;;;;;;;;;;;;;0.75;100.00;99802.56;5110884;28;20459;-75
2021/01/14 12:46:37;;;;;;;;;;;;;;;0.73;100.00;99805.66;5111665;28;19924;-74
2021/01/14 12:49:04;;;;;;;;;;;;;;;0.69;100.00;99807.50;5111165;28;19947;-73
2021/01/14 12:51:30;;;;;;;;;;;;;;;0.72;100.00;99815.06;5109690;28;19954;-74
2021/01/14 12:53:57;;;;;;;;;;;;;;;0.67;100.00;99811.72;5111997;28;19939;-74
2021/01/14 12:56:25;;;;;;;;;;;;;;;0.72;100.00;99812.31;5109937;28;20015;-74